This is the latest recevied weather packets stored in our database for station/object M0HZQ-1. If no packets are shown the sender has not sent any weather packets the latest 1 day(s).
| Time | Temp. | Humidity | Pressure | Rain* | Wind** | Luminosity | Snow |
|---|---|---|---|---|---|---|---|
| 1836274530 | 17.78° C | 67% | 1013.6 hPa | 0 mm | 0 m/s | - | - |
| 1836274315 | 17.78° C | 67% | 1013.6 hPa | 0 mm | 0 m/s | - | - |
| 1778040144 | 10.56° C | 60% | 1013.1 hPa | 0 mm | 0 m/s | - | - |
| 1778039024 | 11.11° C | 59% | 1013 hPa | 0 mm | 0 m/s | - | - |
| 1778038034 | 10.56° C | 59% | 1013.1 hPa | 0 mm | 0 m/s | - | - |
| 1778036944 | 11.11° C | 58% | 1013 hPa | 0 mm | 0 m/s | - | - |
| 1778035797 | 11.11° C | 59% | 1013.1 hPa | 0 mm | 0 m/s | - | - |
| 1778034764 | 11.11° C | 59% | 1013.3 hPa | 0 mm | 0 m/s | - | - |
| 1778033734 | 11.11° C | 60% | 1013.2 hPa | 0 mm | 0 m/s | - | - |
| 1778032724 | 11.67° C | 60% | 1013.3 hPa | 0 mm | 0 m/s | - | - |
| 1778031604 | 11.67° C | 60% | 1013.4 hPa | 0 mm | 0 m/s | - | - |
| 1778030584 | 11.67° C | 59% | 1013.3 hPa | 0 mm | 0 m/s | - | - |
| 1778029409 | 12.22° C | 59% | 1013.5 hPa | 0 mm | 0 m/s | - | - |
| 1778028384 | 11.67° C | 59% | 1013.4 hPa | 0 mm | 0 m/s | - | - |
| 1778027307 | 11.67° C | 59% | 1013.6 hPa | 0 mm | 0 m/s | - | - |
| 1778026297 | 11.67° C | 58% | 1013.8 hPa | 0 mm | 0 m/s | - | - |
| 1778025309 | 12.22° C | 58% | 1013.7 hPa | 0 mm | 0 m/s | - | - |
| 1778024316 | 12.22° C | 58% | 1013.4 hPa | 0 mm | 0 m/s | - | - |
| 1778023309 | 11.67° C | 58% | 1013.5 hPa | 0 mm | 0 m/s | - | - |
| 1778022194 | 12.22° C | 57% | 1013.8 hPa | 0 mm | 0 m/s | - | - |
| 1778021009 | 12.22° C | 57% | 1013.5 hPa | 0 mm | 0 m/s | - | - |
| 1778019974 | 12.78° C | 59% | 1013.6 hPa | 0 mm | 0 m/s | - | - |
| 1778018929 | 13.33° C | 59% | 1013.6 hPa | 0 mm | 0 m/s | - | - |
| 1778017849 | 12.78° C | 58% | 1013.6 hPa | 0 mm | 0 m/s | - | - |
| 1778016874 | 12.78° C | 58% | 1013.5 hPa | 0 mm | 0 m/s | - | - |
* Rain latest hour (hover to see other rain measurements)
** Current wind speed in m/s (hover to see current wind gust speed)